createdAt,value
2023-03-26T00:01:52.772Z,5.40
2023-03-26T00:04:21.800Z,5.50
2023-03-26T00:06:51.031Z,5.50
2023-03-26T00:09:19.609Z,5.60
2023-03-26T00:11:47.534Z,5.60
2023-03-26T00:14:17.587Z,5.60
2023-03-26T00:16:47.461Z,5.60
2023-03-26T00:19:16.797Z,5.70
2023-03-26T00:21:44.638Z,5.60
2023-03-26T00:24:16.108Z,5.60
2023-03-26T00:26:44.634Z,5.60
2023-03-26T00:29:13.957Z,5.60
2023-03-26T00:31:46.347Z,5.60
2023-03-26T00:36:43.993Z,5.60
2023-03-26T00:39:14.090Z,5.60
2023-03-26T00:41:43.280Z,5.60
2023-03-26T00:44:11.960Z,5.50
2023-03-26T00:46:39.991Z,5.50
2023-03-26T00:49:10.842Z,5.40
2023-03-26T00:51:39.604Z,5.30
2023-03-26T00:54:07.785Z,5.20
2023-03-26T00:56:37.187Z,5.20
2023-03-26T00:59:05.386Z,5.20
2023-03-26T01:01:33.344Z,5.10
2023-03-26T01:04:27.915Z,5.10
2023-03-26T01:06:56.595Z,5.10
2023-03-26T01:09:30.616Z,5.00
2023-03-26T01:12:01.815Z,5.00
2023-03-26T01:14:30.390Z,5.00
2023-03-26T01:17:00.085Z,5.10
2023-03-26T01:19:33.895Z,5.00
2023-03-26T01:22:01.874Z,5.00
2023-03-26T01:24:31.082Z,5.00
2023-03-26T01:27:10.728Z,5.00
2023-03-26T01:29:45.366Z,5.00
2023-03-26T01:32:25.616Z,5.00
2023-03-26T01:35:06.245Z,5.00
2023-03-26T01:37:42.592Z,5.00
2023-03-26T01:40:18.658Z,5.00
2023-03-26T01:42:53.211Z,5.00
2023-03-26T01:45:24.997Z,5.00
2023-03-26T01:47:54.526Z,5.00
2023-03-26T01:50:22.456Z,5.00
2023-03-26T01:52:50.285Z,4.90
2023-03-26T01:55:19.934Z,4.90
2023-03-26T01:57:59.170Z,4.90
2023-03-26T02:00:30.832Z,4.90
2023-03-26T02:03:19.356Z,5.00
2023-03-26T02:05:53.751Z,5.00
2023-03-26T02:08:25.324Z,5.10
2023-03-26T02:10:58.604Z,5.20
2023-03-26T02:13:27.189Z,5.30
2023-03-26T02:16:00.396Z,5.30
2023-03-26T02:18:36.265Z,5.30
2023-03-26T02:21:06.762Z,5.40
2023-03-26T02:23:35.820Z,5.40
2023-03-26T02:26:07.490Z,5.40
2023-03-26T02:28:35.621Z,5.50
2023-03-26T02:31:03.600Z,5.50
2023-03-26T02:33:32.586Z,5.50
2023-03-26T02:36:01.903Z,5.60
2023-03-26T02:38:29.990Z,5.60
2023-03-26T02:40:57.857Z,5.60
2023-03-26T02:43:27.032Z,5.60
2023-03-26T02:45:55.789Z,5.60
2023-03-26T02:48:24.211Z,5.70
2023-03-26T02:50:54.579Z,5.80
2023-03-26T02:53:24.202Z,5.80
2023-03-26T02:55:52.292Z,5.80
2023-03-26T02:58:20.255Z,5.80
2023-03-26T03:00:50.868Z,5.80
2023-03-26T03:03:18.747Z,5.90
2023-03-26T03:05:46.586Z,5.90
2023-03-26T03:08:14.388Z,6.00
2023-03-26T03:10:42.442Z,6.00
2023-03-26T03:13:10.266Z,6.00
2023-03-26T03:15:38.066Z,6.10
2023-03-26T03:18:07.721Z,6.00
2023-03-26T03:20:35.822Z,6.00
2023-03-26T03:23:03.635Z,6.00
2023-03-26T03:25:32.545Z,6.10
2023-03-26T03:28:00.410Z,6.10
2023-03-26T03:30:28.252Z,6.20
2023-03-26T03:32:58.213Z,6.20
2023-03-26T03:35:29.540Z,6.10
2023-03-26T03:37:57.607Z,6.10
2023-03-26T03:40:25.971Z,6.20
2023-03-26T03:42:54.023Z,6.20
2023-03-26T03:45:22.032Z,6.20
2023-03-26T03:47:49.843Z,6.20
2023-03-26T03:50:17.791Z,6.30
2023-03-26T03:52:46.965Z,6.30
2023-03-26T03:55:15.235Z,6.20
2023-03-26T03:57:43.069Z,6.10
2023-03-26T04:00:13.052Z,6.10
2023-03-26T04:02:43.073Z,6.10
2023-03-26T04:05:11.692Z,6.10
2023-03-26T04:07:40.390Z,6.10
2023-03-26T04:10:11.262Z,6.10
2023-03-26T04:12:39.082Z,6.10
2023-03-26T04:15:07.833Z,6.20
2023-03-26T04:17:42.433Z,6.20
2023-03-26T04:20:15.597Z,6.20
2023-03-26T04:22:44.095Z,6.20
2023-03-26T04:25:15.492Z,6.30
2023-03-26T04:27:44.037Z,6.20
2023-03-26T04:30:16.088Z,6.10
2023-03-26T04:32:44.732Z,6.20
2023-03-26T04:35:14.359Z,6.20
2023-03-26T04:37:44.388Z,6.10
2023-03-26T04:40:16.913Z,6.10
2023-03-26T04:42:46.011Z,6.20
2023-03-26T04:45:15.033Z,6.20
2023-03-26T04:47:43.148Z,6.30
2023-03-26T04:50:12.349Z,6.30
2023-03-26T04:52:40.720Z,6.30
2023-03-26T04:55:20.508Z,6.40
2023-03-26T04:57:53.406Z,6.40
2023-03-26T05:00:21.668Z,6.40
2023-03-26T05:02:51.155Z,6.30
2023-03-26T05:05:19.278Z,6.20
2023-03-26T05:07:47.165Z,6.20
2023-03-26T05:10:20.211Z,6.10
2023-03-26T05:12:48.552Z,6.00
2023-03-26T05:15:17.086Z,6.00
2023-03-26T05:17:44.966Z,6.10
2023-03-26T05:20:20.921Z,6.00
2023-03-26T05:22:50.045Z,5.90
2023-03-26T05:25:19.914Z,5.90
2023-03-26T05:27:48.155Z,6.00
2023-03-26T05:30:17.425Z,6.00
2023-03-26T05:32:46.179Z,6.00
2023-03-26T05:35:16.840Z,6.10
2023-03-26T05:37:45.545Z,6.10
2023-03-26T05:40:15.802Z,6.10
2023-03-26T05:42:45.687Z,6.10
2023-03-26T05:45:15.321Z,6.10
2023-03-26T05:47:43.262Z,6.10
2023-03-26T05:50:12.158Z,6.00
2023-03-26T05:52:40.072Z,5.90
2023-03-26T05:55:09.076Z,5.90
2023-03-26T05:57:37.669Z,6.00
2023-03-26T06:00:08.869Z,5.90
2023-03-26T06:02:36.866Z,5.90
2023-03-26T06:05:05.495Z,5.80
2023-03-26T06:07:34.017Z,5.80
2023-03-26T06:10:02.587Z,5.80
2023-03-26T06:12:30.421Z,5.80
2023-03-26T06:14:58.213Z,5.80
2023-03-26T06:17:27.421Z,5.80
2023-03-26T06:19:55.323Z,5.90
2023-03-26T06:22:23.121Z,5.80
2023-03-26T06:24:52.769Z,5.80
2023-03-26T06:27:20.631Z,5.80
2023-03-26T06:29:48.473Z,5.80
2023-03-26T06:32:20.136Z,5.90
2023-03-26T06:34:49.849Z,5.90
2023-03-26T06:37:17.929Z,5.80
2023-03-26T06:39:45.983Z,5.90
2023-03-26T06:42:13.975Z,5.90
2023-03-26T06:44:41.743Z,6.00
2023-03-26T06:47:09.568Z,6.00
2023-03-26T06:49:38.244Z,6.00
2023-03-26T06:52:07.581Z,6.10
2023-03-26T06:54:35.388Z,6.10
2023-03-26T06:57:03.378Z,6.20
2023-03-26T06:59:31.544Z,6.20
2023-03-26T07:01:59.373Z,6.20
2023-03-26T07:04:27.264Z,6.10
2023-03-26T07:06:55.931Z,6.10
2023-03-26T07:09:26.206Z,6.10
2023-03-26T07:11:53.990Z,6.10
2023-03-26T07:14:21.823Z,6.20
2023-03-26T07:16:49.660Z,6.20
2023-03-26T07:19:17.516Z,6.20
2023-03-26T07:21:46.657Z,6.30
2023-03-26T07:24:15.473Z,6.30
2023-03-26T07:26:52.336Z,6.40
2023-03-26T07:29:31.040Z,6.50
2023-03-26T07:32:06.199Z,6.60
2023-03-26T07:34:45.265Z,6.70
2023-03-26T07:37:24.600Z,6.80
2023-03-26T07:39:59.937Z,7.00
2023-03-26T07:42:54.741Z,7.00
2023-03-26T07:45:26.868Z,7.00
2023-03-26T07:47:57.033Z,6.90
2023-03-26T07:50:25.922Z,6.90
2023-03-26T07:52:54.264Z,6.90
2023-03-26T07:55:22.981Z,6.90
2023-03-26T07:58:02.716Z,6.90
2023-03-26T08:00:35.989Z,6.90
2023-03-26T08:03:25.411Z,6.90
2023-03-26T08:06:00.131Z,7.00
2023-03-26T08:08:36.961Z,6.90
2023-03-26T08:11:15.686Z,6.90
2023-03-26T08:13:57.694Z,6.80
2023-03-26T08:16:31.289Z,6.80
2023-03-26T08:19:07.829Z,6.90
2023-03-26T08:21:39.690Z,7.00
2023-03-26T08:24:14.233Z,7.10
2023-03-26T08:26:49.416Z,7.20
2023-03-26T08:29:30.395Z,7.20
2023-03-26T08:31:58.664Z,7.30
2023-03-26T08:34:26.758Z,7.30
2023-03-26T08:36:54.579Z,7.30
2023-03-26T08:39:23.170Z,7.20
2023-03-26T08:42:22.894Z,7.10
2023-03-26T08:45:36.494Z,7.00
2023-03-26T08:48:41.150Z,6.90
2023-03-26T08:51:37.944Z,6.90
2023-03-26T08:54:33.902Z,6.90
2023-03-26T08:57:37.976Z,6.90
2023-03-26T09:00:49.116Z,6.80
2023-03-26T09:03:47.977Z,6.80
2023-03-26T09:06:28.361Z,6.90
2023-03-26T09:09:32.693Z,6.90
2023-03-26T09:12:37.572Z,7.10
2023-03-26T09:15:37.605Z,7.20
2023-03-26T09:18:54.781Z,7.30
2023-03-26T09:22:04.374Z,7.50
2023-03-26T09:25:08.100Z,8.00
2023-03-26T09:27:49.487Z,8.50
2023-03-26T09:30:41.689Z,8.40
2023-03-26T09:33:32.503Z,8.80
2023-03-26T09:36:31.433Z,8.80
2023-03-26T09:39:08.649Z,9.10
2023-03-26T09:41:44.138Z,9.30
2023-03-26T09:44:48.256Z,9.50
2023-03-26T09:47:51.213Z,9.60
2023-03-26T09:50:36.559Z,9.70
2023-03-26T09:53:19.775Z,10.10
2023-03-26T09:55:59.089Z,10.00
2023-03-26T09:59:08.176Z,10.70
2023-03-26T10:01:43.520Z,11.20
2023-03-26T10:04:48.636Z,10.90
2023-03-26T10:07:35.878Z,10.30
2023-03-26T10:10:14.698Z,10.20
2023-03-26T10:12:44.394Z,10.50
2023-03-26T10:15:29.453Z,10.90
2023-03-26T10:18:27.329Z,11.20
2023-03-26T10:21:05.062Z,11.30
2023-03-26T10:23:53.174Z,10.90
2023-03-26T10:27:08.384Z,11.30
2023-03-26T10:30:02.738Z,11.60
2023-03-26T10:32:37.911Z,11.60
2023-03-26T10:35:21.257Z,11.80
2023-03-26T10:38:01.578Z,12.30
2023-03-26T10:40:33.401Z,11.70
2023-03-26T10:43:28.298Z,10.90
2023-03-26T10:46:29.367Z,10.30
2023-03-26T10:49:32.400Z,10.10
2023-03-26T10:52:01.879Z,8.20
2023-03-26T10:54:42.070Z,6.60
2023-03-26T10:57:22.806Z,6.40
2023-03-26T10:59:53.020Z,6.20
2023-03-26T11:02:31.679Z,6.00
2023-03-26T11:05:21.168Z,5.90
2023-03-26T11:07:53.912Z,5.90
2023-03-26T11:10:31.995Z,5.90
2023-03-26T11:13:08.887Z,5.90
2023-03-26T11:15:43.803Z,6.10
2023-03-26T11:18:17.650Z,6.20
2023-03-26T11:20:52.104Z,6.30
2023-03-26T11:23:33.180Z,6.50
2023-03-26T11:26:14.401Z,7.20
2023-03-26T11:29:04.712Z,7.80
2023-03-26T11:31:58.003Z,8.10
2023-03-26T11:34:32.445Z,8.50
2023-03-26T11:37:06.064Z,8.80
2023-03-26T11:39:42.601Z,8.90
2023-03-26T11:42:13.994Z,9.00
2023-03-26T11:44:47.626Z,9.40
2023-03-26T11:47:24.582Z,9.20
2023-03-26T11:49:56.110Z,9.40
2023-03-26T11:52:24.330Z,9.60
2023-03-26T11:54:52.941Z,9.80
2023-03-26T11:57:23.428Z,9.90
2023-03-26T11:59:57.947Z,9.80
2023-03-26T12:02:32.582Z,9.80
2023-03-26T12:05:15.835Z,10.00
2023-03-26T12:07:47.771Z,10.10
2023-03-26T12:10:26.038Z,10.30
2023-03-26T12:12:57.667Z,10.40
2023-03-26T12:15:26.639Z,10.00
2023-03-26T12:17:58.492Z,9.60
2023-03-26T12:20:35.975Z,9.50
2023-03-26T12:23:05.205Z,9.40
2023-03-26T12:25:34.797Z,9.30
2023-03-26T12:28:04.782Z,9.40
2023-03-26T12:30:34.803Z,9.20
2023-03-26T12:33:07.268Z,9.00
2023-03-26T12:35:36.847Z,9.00
2023-03-26T12:38:23.673Z,9.00
2023-03-26T12:41:06.021Z,8.90
2023-03-26T12:44:46.872Z,8.80
2023-03-26T12:47:57.023Z,8.80
2023-03-26T12:49:19.190Z,8.90
2023-03-26T12:51:52.439Z,9.10
2023-03-26T12:54:40.437Z,9.10
2023-03-26T12:57:21.608Z,9.00
2023-03-26T13:00:13.876Z,8.90
2023-03-26T13:03:16.880Z,8.90
2023-03-26T13:06:08.413Z,8.90
2023-03-26T13:09:19.718Z,8.80
2023-03-26T13:11:57.603Z,8.60
2023-03-26T13:14:56.610Z,8.40
2023-03-26T13:17:30.967Z,8.20
2023-03-26T13:20:11.791Z,7.90
2023-03-26T13:22:51.384Z,8.00
2023-03-26T13:25:30.574Z,8.60
2023-03-26T13:28:10.278Z,9.10
2023-03-26T13:30:42.435Z,9.40
2023-03-26T13:33:25.662Z,9.40
2023-03-26T13:36:19.253Z,9.80
2023-03-26T13:39:03.452Z,9.90
2023-03-26T13:41:41.895Z,10.00
2023-03-26T13:44:18.459Z,10.20
2023-03-26T13:46:49.883Z,10.30
2023-03-26T13:49:30.212Z,10.30
2023-03-26T13:52:02.085Z,10.20
2023-03-26T13:54:36.165Z,10.30
2023-03-26T13:57:09.310Z,10.20
2023-03-26T13:59:41.571Z,10.10
2023-03-26T14:02:15.028Z,9.90
2023-03-26T14:04:46.435Z,9.80
2023-03-26T14:07:22.545Z,9.60
2023-03-26T14:09:55.336Z,9.50
2023-03-26T14:12:33.396Z,9.60
2023-03-26T14:15:05.301Z,9.50
2023-03-26T14:17:39.641Z,9.40
2023-03-26T14:20:47.590Z,9.30
2023-03-26T14:23:40.612Z,9.30
2023-03-26T14:26:20.501Z,9.30
2023-03-26T14:29:29.318Z,9.40
2023-03-26T14:32:11.224Z,9.30
2023-03-26T14:34:53.948Z,9.70
2023-03-26T14:37:49.610Z,9.90
2023-03-26T14:40:29.991Z,9.90
2023-03-26T14:43:23.642Z,9.50
2023-03-26T14:46:07.521Z,9.30
2023-03-26T14:49:09.659Z,9.10
2023-03-26T14:51:56.180Z,9.10
2023-03-26T14:54:28.485Z,9.10
2023-03-26T14:57:24.931Z,8.90
2023-03-26T15:00:25.522Z,8.90
2023-03-26T15:03:34.632Z,8.80
2023-03-26T15:06:25.952Z,8.70
2023-03-26T15:09:34.204Z,8.60
2023-03-26T15:12:13.123Z,8.30
2023-03-26T15:15:24.979Z,7.40
2023-03-26T15:18:35.106Z,5.80
2023-03-26T15:21:37.821Z,5.50
2023-03-26T15:24:41.398Z,5.50
2023-03-26T15:27:35.188Z,5.50
2023-03-26T15:31:09.732Z,5.50
2023-03-26T15:33:57.890Z,5.60
2023-03-26T15:36:58.788Z,5.60
2023-03-26T15:39:59.670Z,5.60
2023-03-26T15:42:38.402Z,5.70
2023-03-26T15:45:32.618Z,5.60
2023-03-26T15:48:21.748Z,5.70
2023-03-26T15:51:00.215Z,5.70
2023-03-26T15:53:38.308Z,5.70
2023-03-26T15:56:18.819Z,5.80
2023-03-26T15:58:55.219Z,6.20
2023-03-26T16:01:34.095Z,6.30
2023-03-26T16:04:17.962Z,6.30
2023-03-26T16:06:58.110Z,6.20
2023-03-26T16:09:43.549Z,6.30
2023-03-26T16:12:32.136Z,6.30
2023-03-26T16:15:32.234Z,6.50
2023-03-26T16:18:35.932Z,6.60
2023-03-26T16:21:34.386Z,6.60
2023-03-26T16:24:27.850Z,6.60
2023-03-26T16:27:29.806Z,6.50
2023-03-26T16:30:20.220Z,6.40
2023-03-26T16:32:56.139Z,6.20
2023-03-26T16:35:42.211Z,6.20
2023-03-26T16:38:16.155Z,6.20
2023-03-26T16:41:03.945Z,6.20
2023-03-26T16:43:56.316Z,6.20
2023-03-26T16:46:37.465Z,6.00
2023-03-26T16:49:17.205Z,6.00
2023-03-26T16:52:01.763Z,5.90
2023-03-26T16:54:41.021Z,5.80
2023-03-26T16:57:22.617Z,5.70
2023-03-26T17:00:07.601Z,5.70
2023-03-26T17:02:45.836Z,5.60
2023-03-26T17:05:19.975Z,5.50
2023-03-26T17:07:55.042Z,5.50
2023-03-26T17:10:31.958Z,5.50
2023-03-26T17:13:07.200Z,5.60
2023-03-26T17:15:44.292Z,5.60
2023-03-26T17:18:25.666Z,5.60
2023-03-26T17:21:01.457Z,5.70
2023-03-26T17:23:39.911Z,5.70
2023-03-26T17:26:13.242Z,5.70
2023-03-26T17:28:56.397Z,5.70
2023-03-26T17:31:36.334Z,5.70
2023-03-26T17:34:45.550Z,5.70
2023-03-26T17:37:35.626Z,5.60
2023-03-26T17:40:54.461Z,5.50
2023-03-26T17:43:38.622Z,5.40
2023-03-26T17:46:19.832Z,5.40
2023-03-26T17:48:51.043Z,5.30
2023-03-26T17:51:32.428Z,5.40
2023-03-26T17:54:01.425Z,5.30
2023-03-26T17:56:33.042Z,5.10
2023-03-26T17:59:11.552Z,5.00
2023-03-26T18:01:45.036Z,4.90
2023-03-26T18:04:18.547Z,4.70
2023-03-26T18:07:04.344Z,4.70
2023-03-26T18:09:48.804Z,4.60
2023-03-26T18:12:36.967Z,4.50
2023-03-26T18:15:28.920Z,4.40
2023-03-26T18:18:09.601Z,4.30
2023-03-26T18:20:38.382Z,4.20
2023-03-26T18:23:21.315Z,4.10
2023-03-26T18:25:56.040Z,4.10
2023-03-26T18:28:31.047Z,4.00
2023-03-26T18:31:10.215Z,4.00
2023-03-26T18:33:47.885Z,4.00
2023-03-26T18:36:18.542Z,4.00
2023-03-26T18:38:46.901Z,3.90
2023-03-26T18:41:23.459Z,3.90
2023-03-26T18:43:51.397Z,3.80
2023-03-26T18:46:19.302Z,3.80
2023-03-26T18:48:48.811Z,3.70
2023-03-26T18:51:22.995Z,3.70
2023-03-26T18:53:53.390Z,3.70
2023-03-26T18:56:29.732Z,3.70
2023-03-26T18:58:59.809Z,3.60
2023-03-26T19:01:31.476Z,3.60
2023-03-26T19:04:03.996Z,3.60
2023-03-26T19:06:35.786Z,3.60
2023-03-26T19:09:13.436Z,3.60
2023-03-26T19:11:50.179Z,3.60
2023-03-26T19:14:20.195Z,3.70
2023-03-26T19:16:51.134Z,3.70
2023-03-26T19:19:23.283Z,3.70
2023-03-26T19:21:51.734Z,3.70
2023-03-26T19:24:21.591Z,3.70
2023-03-26T19:26:49.631Z,3.50
2023-03-26T19:29:20.950Z,3.50
2023-03-26T19:31:52.271Z,3.40
2023-03-26T19:34:32.120Z,3.40
2023-03-26T19:37:02.881Z,3.40
2023-03-26T19:39:40.170Z,3.40
2023-03-26T19:42:12.307Z,3.40
2023-03-26T19:44:41.130Z,3.40
2023-03-26T19:47:16.101Z,3.40
2023-03-26T19:49:53.091Z,3.40
2023-03-26T19:52:24.847Z,3.40
2023-03-26T19:55:01.616Z,3.40
2023-03-26T19:57:31.853Z,3.50
2023-03-26T19:59:59.774Z,3.50
2023-03-26T20:02:28.402Z,3.50
2023-03-26T20:04:57.743Z,3.50
2023-03-26T20:07:35.917Z,3.40
2023-03-26T20:10:06.177Z,3.40
2023-03-26T20:12:34.252Z,3.40
2023-03-26T20:15:02.870Z,3.50
2023-03-26T20:17:34.750Z,3.40
2023-03-26T20:20:05.753Z,3.50
2023-03-26T20:22:33.650Z,3.50
2023-03-26T20:25:03.087Z,3.40
2023-03-26T20:27:31.012Z,3.30
2023-03-26T20:29:58.809Z,3.20
2023-03-26T20:32:27.420Z,3.10
2023-03-26T20:34:55.773Z,3.00
2023-03-26T20:37:24.998Z,3.00
2023-03-26T20:39:52.872Z,2.90
2023-03-26T20:42:20.973Z,2.90
2023-03-26T20:44:48.786Z,2.90
2023-03-26T20:47:16.607Z,2.80
2023-03-26T20:49:44.401Z,2.80
2023-03-26T20:52:15.468Z,2.80
2023-03-26T20:54:44.700Z,2.70
2023-03-26T20:57:13.386Z,2.70
2023-03-26T20:59:41.931Z,2.70
2023-03-26T21:02:12.113Z,2.70
2023-03-26T21:04:40.120Z,2.70
2023-03-26T21:07:17.531Z,2.70
2023-03-26T21:09:48.691Z,2.70
2023-03-26T21:12:22.238Z,2.70
2023-03-26T21:14:50.963Z,2.70
2023-03-26T21:17:20.749Z,2.70
2023-03-26T21:19:49.309Z,2.80
2023-03-26T21:22:31.275Z,2.80
2023-03-26T21:25:22.758Z,2.70
2023-03-26T21:28:02.495Z,2.70
2023-03-26T21:30:31.508Z,2.60
2023-03-26T21:32:59.681Z,2.60
2023-03-26T21:35:28.307Z,2.60
2023-03-26T21:37:57.656Z,2.60
2023-03-26T21:40:27.941Z,2.60
2023-03-26T21:42:56.392Z,2.60
2023-03-26T21:45:24.904Z,2.60
2023-03-26T21:47:53.601Z,2.60
2023-03-26T21:50:23.583Z,2.70
2023-03-26T21:52:52.549Z,2.70
2023-03-26T21:55:22.861Z,2.80
2023-03-26T21:58:12.490Z,3.00
2023-03-26T22:00:47.876Z,3.10
2023-03-26T22:03:24.296Z,3.10
2023-03-26T22:06:00.615Z,3.20
2023-03-26T22:08:31.560Z,3.20
2023-03-26T22:10:59.529Z,3.30
2023-03-26T22:13:28.694Z,3.30
2023-03-26T22:15:56.821Z,3.30
2023-03-26T22:18:26.028Z,3.30
2023-03-26T22:20:54.380Z,3.40
2023-03-26T22:23:22.744Z,3.50
2023-03-26T22:25:50.598Z,3.50
2023-03-26T22:28:18.498Z,3.50
2023-03-26T22:30:47.730Z,3.60
2023-03-26T22:33:17.894Z,3.60
2023-03-26T22:35:46.113Z,3.60
2023-03-26T22:38:14.941Z,3.70
2023-03-26T22:40:42.787Z,3.70
2023-03-26T22:43:10.633Z,3.70
2023-03-26T22:45:38.678Z,3.80
2023-03-26T22:48:08.504Z,3.70
2023-03-26T22:50:36.800Z,3.80
2023-03-26T22:53:04.827Z,3.80
2023-03-26T22:55:33.013Z,3.80
2023-03-26T22:58:00.885Z,3.80
2023-03-26T23:00:29.009Z,3.80
2023-03-26T23:03:00.539Z,3.80
2023-03-26T23:05:30.173Z,3.90
2023-03-26T23:07:58.138Z,3.90
2023-03-26T23:10:25.983Z,3.90
2023-03-26T23:12:54.138Z,3.90
2023-03-26T23:15:22.103Z,3.90
2023-03-26T23:17:54.869Z,4.00
2023-03-26T23:20:23.055Z,4.00
2023-03-26T23:22:52.626Z,4.00
2023-03-26T23:25:21.553Z,3.90
2023-03-26T23:27:50.617Z,3.90
2023-03-26T23:30:19.219Z,3.90
2023-03-26T23:32:47.327Z,3.90
2023-03-26T23:35:15.577Z,3.90
2023-03-26T23:37:43.383Z,3.90
2023-03-26T23:40:14.033Z,3.90
2023-03-26T23:42:42.427Z,3.90
2023-03-26T23:45:10.942Z,3.90
2023-03-26T23:47:42.264Z,3.90
2023-03-26T23:50:11.501Z,3.90
2023-03-26T23:52:39.464Z,3.90
2023-03-26T23:55:08.091Z,3.90
2023-03-26T23:57:37.758Z,3.90
